createdAt,value
2023-04-07T00:00:16.100Z,99.90
2023-04-07T00:19:46.155Z,99.90
2023-04-07T00:25:20.044Z,99.90
2023-04-07T00:27:47.073Z,99.90
2023-04-07T00:35:37.238Z,99.90
2023-04-07T00:38:04.145Z,99.90
2023-04-07T00:40:31.412Z,99.90
2023-04-07T00:42:58.725Z,99.90
2023-04-07T00:45:26.043Z,99.90
2023-04-07T00:54:01.588Z,99.90
2023-04-07T00:56:45.473Z,99.90
2023-04-07T01:08:22.889Z,99.90
2023-04-07T01:10:51.878Z,99.90
2023-04-07T01:13:51.518Z,99.90
2023-04-07T01:19:32.234Z,99.90
2023-04-07T01:25:19.498Z,99.90
2023-04-07T01:30:24.103Z,99.90
2023-04-07T01:32:53.148Z,99.90
2023-04-07T01:37:56.249Z,99.90
2023-04-07T01:42:53.425Z,99.90
2023-04-07T01:53:54.353Z,99.90
2023-04-07T01:56:21.347Z,99.90
2023-04-07T02:01:24.068Z,99.90
2023-04-07T02:06:59.469Z,99.90
2023-04-07T02:12:16.788Z,99.90
2023-04-07T02:17:19.416Z,99.90
2023-04-07T02:19:47.738Z,99.90
2023-04-07T02:22:16.523Z,99.90
2023-04-07T02:24:43.564Z,99.90
2023-04-07T02:27:10.912Z,99.90
2023-04-07T02:35:04.029Z,99.90
2023-04-07T02:41:06.790Z,99.90
2023-04-07T02:49:21.324Z,99.90
2023-04-07T02:51:48.229Z,99.90
2023-04-07T02:54:15.130Z,99.90
2023-04-07T03:02:02.846Z,99.90
2023-04-07T03:07:43.143Z,99.90
2023-04-07T03:10:10.512Z,99.90
2023-04-07T03:15:22.724Z,99.90
2023-04-07T03:20:25.320Z,99.90
2023-04-07T03:25:41.953Z,99.90
2023-04-07T03:35:03.096Z,99.90
2023-04-07T03:37:29.924Z,99.90
2023-04-07T03:39:56.818Z,99.90
2023-04-07T03:42:24.094Z,99.90
2023-04-07T03:44:50.939Z,99.90
2023-04-07T03:47:18.172Z,99.90
2023-04-07T03:49:45.010Z,99.90
2023-04-07T03:52:12.205Z,99.90
2023-04-07T03:54:39.389Z,99.90
2023-04-07T03:57:06.303Z,99.90
2023-04-07T04:02:08.473Z,99.90
2023-04-07T04:04:35.441Z,99.90
2023-04-07T04:07:02.325Z,99.90
2023-04-07T04:12:14.400Z,99.90
2023-04-07T04:17:23.828Z,99.90
2023-04-07T04:19:51.200Z,99.90
2023-04-07T04:22:18.319Z,99.90
2023-04-07T04:24:45.304Z,99.90
2023-04-07T04:32:32.856Z,99.90
2023-04-07T04:35:00.491Z,99.90
2023-04-07T04:37:28.397Z,99.90
2023-04-07T04:39:55.523Z,99.90
2023-04-07T04:42:22.939Z,99.90
2023-04-07T05:01:14.616Z,99.90
2023-04-07T05:03:42.222Z,99.90
2023-04-07T05:06:09.625Z,99.90
2023-04-07T05:11:35.522Z,99.90
2023-04-07T05:19:33.639Z,99.90
2023-04-07T05:22:00.527Z,99.90
2023-04-07T05:24:29.471Z,99.90
2023-04-07T05:26:57.111Z,99.90
2023-04-07T05:29:24.022Z,99.90
2023-04-07T05:43:37.184Z,99.90
2023-04-07T05:46:04.093Z,99.90
2023-04-07T05:48:30.987Z,99.90
2023-04-07T05:50:58.193Z,99.90
2023-04-07T05:53:25.014Z,99.90
2023-04-07T05:58:37.598Z,99.90
2023-04-07T06:01:04.891Z,99.90
2023-04-07T06:03:32.147Z,99.90
2023-04-07T06:14:05.559Z,99.90
2023-04-07T06:16:32.511Z,99.90
2023-04-07T06:18:59.380Z,99.90
2023-04-07T06:21:27.386Z,99.90
2023-04-07T06:26:29.571Z,99.90
2023-04-07T06:38:40.246Z,99.90
2023-04-07T06:43:39.434Z,99.90
2023-04-07T06:46:06.353Z,99.90
2023-04-07T06:48:33.235Z,99.90
2023-04-07T06:51:00.125Z,99.90
2023-04-07T06:53:27.042Z,99.90
2023-04-07T06:56:14.537Z,99.90
2023-04-07T06:58:41.743Z,99.90
2023-04-07T07:01:09.138Z,99.90
2023-04-07T07:03:36.205Z,99.90
2023-04-07T07:06:03.206Z,99.90
2023-04-07T07:08:31.024Z,99.90
2023-04-07T07:10:58.161Z,99.90
2023-04-07T07:13:26.963Z,99.90
2023-04-07T07:15:54.194Z,99.90
2023-04-07T07:18:21.590Z,99.90
2023-04-07T07:20:48.901Z,99.90
2023-04-07T07:23:16.078Z,99.90
2023-04-07T07:25:42.941Z,99.90
2023-04-07T07:28:09.877Z,99.90
2023-04-07T07:30:39.350Z,99.90
2023-04-07T07:33:06.389Z,99.90
2023-04-07T07:35:33.456Z,99.90
2023-04-07T07:38:00.944Z,99.90
2023-04-07T07:40:27.753Z,99.90
2023-04-07T07:42:54.650Z,99.90
2023-04-07T07:45:21.545Z,99.90
2023-04-07T07:47:48.447Z,99.90
2023-04-07T07:50:15.482Z,99.90
2023-04-07T07:52:43.315Z,99.90
2023-04-07T07:55:11.676Z,99.90
2023-04-07T07:57:38.509Z,99.90
2023-04-07T08:00:05.980Z,99.90
2023-04-07T08:02:34.030Z,99.90
2023-04-07T08:05:01.420Z,99.90
2023-04-07T08:07:28.471Z,99.90
2023-04-07T08:09:55.340Z,99.90
2023-04-07T08:12:22.287Z,99.90
2023-04-07T08:14:50.078Z,99.90
2023-04-07T08:17:17.310Z,99.90
2023-04-07T08:19:44.661Z,99.90
2023-04-07T08:22:11.545Z,99.90
2023-04-07T08:24:38.809Z,99.90
2023-04-07T08:27:05.937Z,99.90
2023-04-07T08:29:33.232Z,99.90
2023-04-07T08:32:00.289Z,99.90
2023-04-07T08:34:27.698Z,99.90
2023-04-07T08:36:54.723Z,99.90
2023-04-07T08:39:22.878Z,99.90
2023-04-07T08:41:51.319Z,99.90
2023-04-07T08:44:21.376Z,99.90
2023-04-07T08:46:49.422Z,99.90
2023-04-07T08:49:18.568Z,99.90
2023-04-07T08:51:47.621Z,99.90
2023-04-07T08:54:19.146Z,99.90
2023-04-07T08:56:46.354Z,99.90
2023-04-07T08:59:14.944Z,99.90
2023-04-07T09:01:42.347Z,99.90
2023-04-07T09:04:10.458Z,99.90
2023-04-07T09:06:38.140Z,99.90
2023-04-07T09:09:08.539Z,99.90
2023-04-07T09:11:37.216Z,99.90
2023-04-07T09:14:04.154Z,99.90
2023-04-07T09:16:31.257Z,99.90
2023-04-07T09:18:59.340Z,99.90
2023-04-07T09:21:27.457Z,99.90
2023-04-07T09:23:54.353Z,99.90
2023-04-07T09:26:23.046Z,99.90
2023-04-07T09:29:01.416Z,99.90
2023-04-07T09:31:50.173Z,99.90
2023-04-07T09:34:35.196Z,99.90
2023-04-07T09:37:02.794Z,99.90
2023-04-07T09:39:30.114Z,99.90
2023-04-07T09:41:58.068Z,99.90
2023-04-07T09:44:26.489Z,99.90
2023-04-07T09:46:56.762Z,99.90
2023-04-07T09:49:24.857Z,99.90
2023-04-07T09:51:54.602Z,99.90
2023-04-07T09:54:36.213Z,99.90
2023-04-07T09:57:07.513Z,99.90
2023-04-07T09:59:36.669Z,99.90
2023-04-07T10:02:04.424Z,99.90
2023-04-07T10:04:32.325Z,99.90
2023-04-07T10:07:00.396Z,99.90
2023-04-07T10:09:28.439Z,99.90
2023-04-07T10:11:58.116Z,99.90
2023-04-07T10:14:31.339Z,99.90
2023-04-07T10:17:00.457Z,99.90
2023-04-07T10:19:32.207Z,99.90
2023-04-07T10:22:01.836Z,99.90
2023-04-07T10:24:29.261Z,99.90
2023-04-07T10:27:08.189Z,99.90
2023-04-07T10:29:39.987Z,99.90
2023-04-07T10:32:07.875Z,99.90
2023-04-07T10:34:57.496Z,99.90
2023-04-07T10:37:25.742Z,99.90
2023-04-07T10:40:18.568Z,99.90
2023-04-07T10:42:49.271Z,99.90
2023-04-07T10:45:16.281Z,99.90
2023-04-07T10:47:58.330Z,99.90
2023-04-07T10:50:25.949Z,99.90
2023-04-07T10:53:08.280Z,99.90
2023-04-07T10:55:44.941Z,99.90
2023-04-07T10:58:22.936Z,99.90
2023-04-07T11:01:07.956Z,99.90
2023-04-07T11:03:40.790Z,99.90
2023-04-07T11:06:09.084Z,99.90
2023-04-07T11:08:37.116Z,99.90
2023-04-07T11:11:09.477Z,99.90
2023-04-07T11:13:47.118Z,99.90
2023-04-07T11:16:15.868Z,99.90
2023-04-07T11:18:43.854Z,99.90
2023-04-07T11:21:11.247Z,99.90
2023-04-07T11:23:39.978Z,99.90
2023-04-07T11:26:07.186Z,99.90
2023-04-07T11:28:34.730Z,99.90
2023-04-07T11:31:02.135Z,99.90
2023-04-07T11:33:30.889Z,99.90
2023-04-07T11:36:00.605Z,99.90
2023-04-07T11:38:30.689Z,99.90
2023-04-07T11:40:57.589Z,99.90
2023-04-07T11:43:28.195Z,99.90
2023-04-07T11:46:09.887Z,99.90
2023-04-07T11:48:39.384Z,99.90
2023-04-07T11:51:07.667Z,99.90
2023-04-07T11:53:41.075Z,99.90
2023-04-07T11:56:10.354Z,99.90
2023-04-07T11:58:37.794Z,99.90
2023-04-07T12:01:09.148Z,99.90
2023-04-07T12:03:37.620Z,99.90
2023-04-07T12:06:05.502Z,99.90
2023-04-07T12:08:43.806Z,99.90
2023-04-07T12:11:11.001Z,99.90
2023-04-07T12:13:38.168Z,99.90
2023-04-07T12:16:05.413Z,99.90
2023-04-07T12:18:32.598Z,99.90
2023-04-07T12:20:59.618Z,99.90
2023-04-07T12:23:26.675Z,99.90
2023-04-07T12:25:53.906Z,99.90
2023-04-07T12:28:21.273Z,99.90
2023-04-07T12:30:49.012Z,99.90
2023-04-07T12:33:15.867Z,99.90
2023-04-07T12:35:42.785Z,99.90
2023-04-07T12:38:09.634Z,99.90
2023-04-07T12:40:37.820Z,99.90
2023-04-07T12:43:05.924Z,99.90
2023-04-07T12:45:33.514Z,99.90
2023-04-07T12:48:00.643Z,99.90
2023-04-07T12:50:29.220Z,99.90
2023-04-07T12:52:58.883Z,99.90
2023-04-07T12:55:25.951Z,99.90
2023-04-07T12:57:52.884Z,99.90
2023-04-07T13:00:19.672Z,99.90
2023-04-07T13:02:47.273Z,99.90
2023-04-07T13:05:14.182Z,99.90
2023-04-07T13:07:41.508Z,99.90
2023-04-07T13:10:09.319Z,99.90
2023-04-07T13:12:36.272Z,99.90
2023-04-07T13:15:04.166Z,99.90
2023-04-07T13:17:31.218Z,99.90
2023-04-07T13:19:58.144Z,99.90
2023-04-07T13:22:25.348Z,99.90
2023-04-07T13:24:52.240Z,99.90
2023-04-07T13:27:19.156Z,99.90
2023-04-07T13:29:46.243Z,99.90
2023-04-07T13:32:13.496Z,99.90
2023-04-07T13:34:40.530Z,99.90
2023-04-07T13:37:07.897Z,99.90
2023-04-07T13:39:34.751Z,99.90
2023-04-07T13:42:01.942Z,99.90
2023-04-07T13:44:29.503Z,99.90
2023-04-07T13:46:57.948Z,99.90
2023-04-07T13:49:24.967Z,99.70
2023-04-07T13:51:52.124Z,98.70
2023-04-07T13:54:19.099Z,98.60
2023-04-07T13:56:47.364Z,97.20
2023-04-07T13:59:14.281Z,96.50
2023-04-07T14:01:41.964Z,97.00
2023-04-07T14:04:09.155Z,97.70
2023-04-07T14:06:37.404Z,97.80
2023-04-07T14:09:06.481Z,97.80
2023-04-07T14:11:34.840Z,97.80
2023-04-07T14:14:02.154Z,98.60
2023-04-07T14:16:29.675Z,98.60
2023-04-07T14:18:57.129Z,98.50
2023-04-07T14:21:24.286Z,98.00
2023-04-07T14:23:51.675Z,98.70
2023-04-07T14:26:18.852Z,98.40
2023-04-07T14:28:45.756Z,98.30
2023-04-07T14:31:15.738Z,97.60
2023-04-07T14:33:44.275Z,98.30
2023-04-07T14:36:11.318Z,98.20
2023-04-07T14:38:38.196Z,98.20
2023-04-07T14:41:09.934Z,98.70
2023-04-07T14:43:37.930Z,99.90
2023-04-07T14:46:05.256Z,99.90
2023-04-07T14:48:32.704Z,99.90
2023-04-07T14:51:09.207Z,99.90
2023-04-07T14:53:36.875Z,99.90
2023-04-07T14:56:06.086Z,99.90
2023-04-07T14:58:33.152Z,99.90
2023-04-07T15:01:00.001Z,99.90
2023-04-07T15:03:27.114Z,99.90
2023-04-07T15:05:54.082Z,99.90
2023-04-07T15:08:20.928Z,99.90
2023-04-07T15:10:47.760Z,99.90
2023-04-07T15:13:14.943Z,99.90
2023-04-07T15:15:41.790Z,99.90
2023-04-07T15:18:08.716Z,99.90
2023-04-07T15:20:35.635Z,99.90
2023-04-07T15:23:03.497Z,99.90
2023-04-07T15:25:30.826Z,99.90
2023-04-07T15:27:57.634Z,99.90
2023-04-07T15:30:24.878Z,99.90
2023-04-07T15:33:04.280Z,99.90
2023-04-07T15:35:31.709Z,99.90
2023-04-07T15:37:58.602Z,99.90
2023-04-07T15:40:25.867Z,99.90
2023-04-07T15:42:52.640Z,99.90
2023-04-07T15:45:19.646Z,99.90
2023-04-07T15:47:46.448Z,99.90
2023-04-07T15:50:13.257Z,99.90
2023-04-07T15:52:40.143Z,99.90
2023-04-07T15:55:07.179Z,99.90
2023-04-07T15:57:33.998Z,99.90
2023-04-07T16:00:01.036Z,99.90
2023-04-07T16:02:28.014Z,99.90
2023-04-07T16:04:54.970Z,99.90
2023-04-07T16:07:21.885Z,99.90
2023-04-07T16:09:48.645Z,99.90
2023-04-07T16:12:16.474Z,99.90
2023-04-07T16:14:43.355Z,99.90
2023-04-07T16:17:11.900Z,99.90
2023-04-07T16:19:38.733Z,99.90
2023-04-07T16:22:05.762Z,99.90
2023-04-07T16:24:33.083Z,99.90
2023-04-07T16:27:03.948Z,99.90
2023-04-07T16:29:31.132Z,99.90
2023-04-07T16:31:58.057Z,99.90
2023-04-07T16:34:25.023Z,99.90
2023-04-07T16:36:51.927Z,99.90
2023-04-07T16:39:18.822Z,99.90
2023-04-07T16:41:45.834Z,99.90
2023-04-07T16:44:13.133Z,99.90
2023-04-07T16:46:39.972Z,99.90
2023-04-07T16:49:06.884Z,99.90
2023-04-07T16:51:34.077Z,99.90
2023-04-07T16:54:00.964Z,99.90
2023-04-07T16:56:27.839Z,99.90
2023-04-07T16:58:56.137Z,99.90
2023-04-07T17:01:22.972Z,99.90
2023-04-07T17:03:51.567Z,99.90
2023-04-07T17:06:19.061Z,99.90
2023-04-07T17:08:45.978Z,99.90
2023-04-07T17:11:13.667Z,99.90
2023-04-07T17:13:40.819Z,99.90
2023-04-07T17:16:13.865Z,99.90
2023-04-07T17:18:40.806Z,99.90
2023-04-07T17:21:07.623Z,99.90
2023-04-07T17:23:34.486Z,99.90
2023-04-07T17:26:01.372Z,99.90
2023-04-07T17:28:30.147Z,99.90
2023-04-07T17:30:58.368Z,99.90
2023-04-07T17:33:26.134Z,99.90
2023-04-07T17:35:53.118Z,99.90
2023-04-07T17:38:20.108Z,99.90
2023-04-07T17:40:47.046Z,99.90
2023-04-07T17:43:15.652Z,99.90
2023-04-07T17:45:42.510Z,99.90
2023-04-07T17:48:12.120Z,99.90
2023-04-07T17:50:39.175Z,99.90
2023-04-07T17:53:06.437Z,99.90
2023-04-07T17:55:33.395Z,99.90
2023-04-07T17:58:02.972Z,99.90
2023-04-07T18:00:30.569Z,99.90
2023-04-07T18:02:57.804Z,99.90
2023-04-07T18:05:25.602Z,99.90
2023-04-07T18:07:54.773Z,99.90
2023-04-07T18:10:21.858Z,99.90
2023-04-07T18:12:48.652Z,99.90
2023-04-07T18:15:15.653Z,99.90
2023-04-07T18:17:42.591Z,99.90
2023-04-07T18:20:10.083Z,99.90
2023-04-07T18:22:37.318Z,99.90
2023-04-07T18:25:04.461Z,99.90
2023-04-07T18:27:31.394Z,99.90
2023-04-07T18:29:58.599Z,99.90
2023-04-07T18:32:25.958Z,99.90
2023-04-07T18:34:53.818Z,99.90
2023-04-07T18:37:21.084Z,99.90
2023-04-07T18:39:48.387Z,99.90
2023-04-07T18:42:15.532Z,99.90
2023-04-07T18:44:42.426Z,99.90
2023-04-07T18:47:09.407Z,99.90
2023-04-07T18:49:36.261Z,99.90
2023-04-07T18:52:03.493Z,99.90
2023-04-07T18:54:30.445Z,99.90
2023-04-07T18:56:58.531Z,99.90
2023-04-07T18:59:26.595Z,99.90
2023-04-07T19:01:53.657Z,99.90
2023-04-07T19:04:20.993Z,99.90
2023-04-07T19:06:54.593Z,99.90
2023-04-07T19:09:21.606Z,99.90
2023-04-07T19:11:48.426Z,99.90
2023-04-07T19:14:15.991Z,99.90
2023-04-07T19:16:44.501Z,99.90
2023-04-07T19:19:13.162Z,99.90
2023-04-07T19:21:40.565Z,99.90
2023-04-07T19:24:07.753Z,99.90
2023-04-07T19:26:35.035Z,99.90
2023-04-07T19:29:03.576Z,99.90
2023-04-07T19:31:31.310Z,99.90
2023-04-07T19:33:59.326Z,99.90
2023-04-07T19:36:26.564Z,99.90
2023-04-07T19:38:53.477Z,99.90
2023-04-07T19:41:21.218Z,99.90
2023-04-07T19:43:48.199Z,99.90
2023-04-07T19:46:15.176Z,99.90
2023-04-07T19:48:42.531Z,99.90
2023-04-07T19:51:09.430Z,99.90
2023-04-07T19:53:36.253Z,99.90
2023-04-07T19:56:05.854Z,99.90
2023-04-07T19:58:34.424Z,99.90
2023-04-07T20:01:02.739Z,99.90
2023-04-07T20:03:29.681Z,99.90
2023-04-07T20:05:56.652Z,99.90
2023-04-07T20:08:23.558Z,99.90
2023-04-07T20:10:52.602Z,99.90
2023-04-07T20:13:20.449Z,99.90
2023-04-07T20:15:49.131Z,99.90
2023-04-07T20:18:18.533Z,99.90
2023-04-07T20:20:46.385Z,99.90
2023-04-07T20:23:16.019Z,99.90
2023-04-07T20:25:42.884Z,99.90
2023-04-07T20:28:09.723Z,99.90
2023-04-07T20:30:36.702Z,99.90
2023-04-07T20:33:03.663Z,99.90
2023-04-07T20:35:30.525Z,99.90
2023-04-07T20:37:57.378Z,99.90
2023-04-07T20:40:24.533Z,99.90
2023-04-07T20:42:51.971Z,99.90
2023-04-07T20:45:19.059Z,99.90
2023-04-07T20:47:46.171Z,99.90
2023-04-07T20:50:13.091Z,99.90
2023-04-07T20:52:43.344Z,99.90
2023-04-07T20:55:11.231Z,99.90
2023-04-07T20:57:41.754Z,99.90
2023-04-07T21:00:12.243Z,99.90
2023-04-07T21:02:39.696Z,99.90
2023-04-07T21:05:06.850Z,99.90
2023-04-07T21:07:33.699Z,99.90
2023-04-07T21:10:00.986Z,99.90
2023-04-07T21:12:28.296Z,99.90
2023-04-07T21:14:55.243Z,99.90
2023-04-07T21:17:22.235Z,99.90
2023-04-07T21:19:49.110Z,99.90
2023-04-07T21:22:16.098Z,99.90
2023-04-07T21:24:42.889Z,99.90
2023-04-07T21:27:09.755Z,99.90
2023-04-07T21:29:36.626Z,99.90
2023-04-07T21:32:03.515Z,99.90
2023-04-07T21:34:30.552Z,99.90
2023-04-07T21:36:57.364Z,99.90
2023-04-07T21:39:24.206Z,99.90
2023-04-07T21:41:51.194Z,99.90
2023-04-07T21:44:20.075Z,99.90
2023-04-07T21:46:47.874Z,99.90
2023-04-07T21:49:17.849Z,99.90
2023-04-07T21:51:44.805Z,99.90
2023-04-07T21:54:12.503Z,99.90
2023-04-07T21:56:39.445Z,99.90
2023-04-07T21:59:07.321Z,99.90
2023-04-07T22:01:34.279Z,99.90
2023-04-07T22:04:01.456Z,99.90
2023-04-07T22:06:28.346Z,99.90
2023-04-07T22:09:01.818Z,99.90
2023-04-07T22:11:29.708Z,99.90
2023-04-07T22:13:56.989Z,99.90
2023-04-07T22:16:24.274Z,99.90
2023-04-07T22:18:51.419Z,99.90
2023-04-07T22:21:18.381Z,99.90
2023-04-07T22:23:45.525Z,99.90
2023-04-07T22:26:12.463Z,99.90
2023-04-07T22:28:39.354Z,99.90
2023-04-07T22:31:06.181Z,99.90
2023-04-07T22:33:33.033Z,99.90
2023-04-07T22:35:59.969Z,99.90
2023-04-07T22:38:26.896Z,99.90
2023-04-07T22:40:54.096Z,99.90
2023-04-07T22:43:20.932Z,99.90
2023-04-07T22:45:47.792Z,99.90
2023-04-07T22:48:15.781Z,99.90
2023-04-07T22:50:42.567Z,99.90
2023-04-07T22:53:09.389Z,99.90
2023-04-07T22:55:36.266Z,99.90
2023-04-07T22:58:03.179Z,99.90
2023-04-07T23:00:30.082Z,99.90
2023-04-07T23:02:57.056Z,99.90
2023-04-07T23:05:24.283Z,99.90
2023-04-07T23:07:53.293Z,99.90
2023-04-07T23:10:20.193Z,99.90
2023-04-07T23:12:47.621Z,99.90
2023-04-07T23:15:14.926Z,99.90
2023-04-07T23:17:41.769Z,99.90
2023-04-07T23:20:09.279Z,99.90
2023-04-07T23:22:36.439Z,99.90
2023-04-07T23:25:03.314Z,99.90
2023-04-07T23:27:30.340Z,99.90
2023-04-07T23:29:59.107Z,99.90
2023-04-07T23:32:25.951Z,99.90
2023-04-07T23:34:52.748Z,99.90
2023-04-07T23:37:19.564Z,99.90
2023-04-07T23:39:46.564Z,99.90
2023-04-07T23:42:14.930Z,99.90
2023-04-07T23:44:41.755Z,99.90
2023-04-07T23:47:08.589Z,99.90
2023-04-07T23:49:35.821Z,99.90
2023-04-07T23:52:03.009Z,99.90
2023-04-07T23:54:30.196Z,99.90
2023-04-07T23:56:57.219Z,99.90
2023-04-07T23:59:24.127Z,99.90
